createdAt,value
2018-08-14T00:00:40.756Z,14.47
2018-08-14T00:03:15.693Z,12.37
2018-08-14T00:05:45.351Z,10.57
2018-08-14T00:08:15.815Z,8.47
2018-08-14T00:10:57.640Z,8.57
2018-08-14T00:13:27.048Z,7.70
2018-08-14T00:15:57.981Z,4.77
2018-08-14T00:18:27.248Z,5.80
2018-08-14T00:20:56.339Z,5.57
2018-08-14T00:23:25.463Z,6.47
2018-08-14T00:25:54.728Z,5.87
2018-08-14T00:28:23.866Z,5.43
2018-08-14T00:30:52.862Z,6.23
2018-08-14T00:33:24.095Z,6.10
2018-08-14T00:35:53.474Z,5.73
2018-08-14T00:38:22.839Z,6.33
2018-08-14T00:41:11.061Z,6.13
2018-08-14T00:43:40.227Z,6.17
2018-08-14T00:46:09.466Z,6.27
2018-08-14T00:48:38.654Z,6.87
2018-08-14T00:51:06.489Z,6.93
2018-08-14T00:53:36.447Z,6.43
2018-08-14T00:56:06.087Z,6.87
2018-08-14T00:58:35.244Z,6.43
2018-08-14T01:01:05.104Z,6.90
2018-08-14T01:03:37.654Z,8.10
2018-08-14T01:06:07.559Z,7.07
2018-08-14T01:08:46.380Z,7.80
2018-08-14T01:11:19.104Z,7.13
2018-08-14T01:13:53.902Z,8.07
2018-08-14T01:16:24.663Z,8.33
2018-08-14T01:18:56.945Z,8.27
2018-08-14T01:21:26.511Z,8.37
2018-08-14T01:24:08.818Z,8.60
2018-08-14T01:26:45.206Z,8.50
2018-08-14T01:29:15.172Z,7.73
2018-08-14T01:31:44.361Z,7.63
2018-08-14T01:34:14.208Z,7.10
2018-08-14T01:37:05.838Z,7.33
2018-08-14T01:39:57.203Z,6.40
2018-08-14T01:42:53.641Z,6.27
2018-08-14T01:45:25.419Z,6.17
2018-08-14T01:47:55.341Z,6.50
2018-08-14T01:50:27.615Z,6.13
2018-08-14T01:56:04.302Z,6.90
2018-08-14T01:59:18.555Z,6.50
2018-08-14T02:01:49.985Z,6.47
2018-08-14T02:04:27.147Z,7.07
2018-08-14T02:06:58.853Z,7.37
2018-08-14T02:09:34.153Z,6.87
2018-08-14T02:12:08.925Z,7.47
2018-08-14T02:14:38.736Z,6.80
2018-08-14T02:17:11.564Z,7.50
2018-08-14T02:19:48.650Z,6.60
2018-08-14T02:22:18.448Z,7.30
2018-08-14T02:24:56.563Z,7.17
2018-08-14T02:27:29.971Z,7.00
2018-08-14T02:30:03.997Z,6.80
2018-08-14T02:32:43.351Z,6.20
2018-08-14T02:35:23.113Z,6.30
2018-08-14T02:38:01.443Z,6.10
2018-08-14T02:40:34.584Z,6.43
2018-08-14T02:43:04.614Z,5.53
2018-08-14T02:45:37.211Z,6.93
2018-08-14T02:48:15.208Z,6.87
2018-08-14T02:50:46.966Z,6.70
2018-08-14T02:53:17.440Z,6.50
2018-08-14T02:56:06.048Z,5.20
2018-08-14T02:58:43.236Z,5.60
2018-08-14T03:01:13.111Z,6.27
2018-08-14T03:04:01.287Z,5.70
2018-08-14T03:06:41.717Z,6.23
2018-08-14T03:09:19.974Z,7.20
2018-08-14T03:12:11.077Z,7.27
2018-08-14T03:18:09.259Z,6.93
2018-08-14T03:20:41.083Z,6.70
2018-08-14T03:23:22.283Z,6.50
2018-08-14T03:26:06.308Z,7.23
2018-08-14T03:28:51.098Z,8.20
2018-08-14T03:31:31.828Z,9.10
2018-08-14T03:34:19.128Z,11.37
2018-08-14T03:36:54.277Z,11.87
2018-08-14T03:39:34.865Z,9.83
2018-08-14T03:42:07.219Z,9.00
2018-08-14T03:44:46.256Z,9.00
2018-08-14T03:47:37.745Z,9.33
2018-08-14T03:50:15.450Z,8.67
2018-08-14T03:52:46.269Z,8.13
2018-08-14T03:55:20.808Z,7.57
2018-08-14T03:57:50.844Z,5.50
2018-08-14T04:00:20.571Z,5.93
2018-08-14T04:02:50.021Z,5.77
2018-08-14T04:05:19.321Z,4.83
2018-08-14T04:07:57.383Z,6.23
2018-08-14T04:10:26.674Z,6.00
2018-08-14T04:12:55.949Z,6.00
2018-08-14T04:15:25.219Z,6.40
2018-08-14T04:18:01.503Z,7.10
2018-08-14T04:20:32.271Z,6.10
2018-08-14T04:23:01.334Z,7.20
2018-08-14T04:25:30.460Z,7.93
2018-08-14T04:27:59.622Z,8.13
2018-08-14T04:30:28.916Z,8.13
2018-08-14T04:32:59.264Z,9.10
2018-08-14T04:35:28.437Z,8.53
2018-08-14T04:37:57.846Z,8.50
2018-08-14T04:40:27.030Z,8.30
2018-08-14T04:42:56.372Z,8.50
2018-08-14T04:49:05.590Z,8.63
2018-08-14T04:51:52.596Z,10.00
2018-08-14T04:54:23.049Z,10.13
2018-08-14T04:56:52.253Z,11.10
2018-08-14T04:59:21.515Z,10.13
2018-08-14T05:01:50.767Z,10.47
2018-08-14T05:04:20.175Z,11.03
2018-08-14T05:06:49.467Z,10.80
2018-08-14T05:09:18.758Z,11.10
2018-08-14T05:11:48.923Z,12.93
2018-08-14T05:14:18.349Z,12.67
2018-08-14T05:16:47.913Z,12.07
2018-08-14T05:19:17.207Z,13.43
2018-08-14T05:21:46.582Z,12.97
2018-08-14T05:24:16.632Z,13.17
2018-08-14T05:26:45.948Z,15.57
2018-08-14T05:29:15.793Z,14.03
2018-08-14T05:31:45.342Z,14.57
2018-08-14T05:34:15.465Z,14.90
2018-08-14T05:36:45.911Z,14.00
2018-08-14T05:39:15.904Z,13.57
2018-08-14T05:41:44.987Z,13.97
2018-08-14T05:44:21.125Z,13.10
2018-08-14T05:46:50.584Z,14.37
2018-08-14T05:49:20.183Z,13.33
2018-08-14T05:51:49.588Z,13.43
2018-08-14T05:54:19.347Z,15.20
2018-08-14T05:56:48.709Z,13.67
2018-08-14T05:59:17.998Z,14.00
2018-08-14T06:01:47.524Z,13.53
2018-08-14T06:04:17.271Z,14.17
2018-08-14T06:06:54.148Z,13.23
2018-08-14T06:09:23.354Z,14.27
2018-08-14T06:11:52.479Z,14.00
2018-08-14T06:14:22.055Z,12.73
2018-08-14T06:16:51.302Z,11.67
2018-08-14T06:19:27.513Z,12.30
2018-08-14T06:21:59.892Z,11.57
2018-08-14T06:24:29.387Z,12.93
2018-08-14T06:26:59.072Z,12.03
2018-08-14T06:29:28.390Z,12.00
2018-08-14T06:31:57.878Z,10.93
2018-08-14T06:34:27.436Z,11.37
2018-08-14T06:36:56.735Z,10.73
2018-08-14T06:39:25.984Z,9.97
2018-08-14T06:41:59.005Z,9.47
2018-08-14T06:44:28.228Z,10.40
2018-08-14T06:46:57.259Z,9.77
2018-08-14T06:49:26.324Z,10.03
2018-08-14T06:52:20.181Z,10.20
2018-08-14T06:54:49.415Z,9.87
2018-08-14T06:57:18.554Z,10.47
2018-08-14T06:59:48.021Z,11.37
2018-08-14T07:02:17.599Z,10.30
2018-08-14T07:04:48.064Z,10.73
2018-08-14T07:07:17.239Z,11.67
2018-08-14T07:09:47.722Z,9.97
2018-08-14T07:12:17.267Z,9.60
2018-08-14T07:14:46.463Z,8.73
2018-08-14T07:17:20.148Z,8.30
2018-08-14T07:19:49.969Z,9.13
2018-08-14T07:22:19.063Z,8.90
2018-08-14T07:24:48.365Z,10.57
2018-08-14T07:27:18.606Z,12.23
2018-08-14T07:29:47.760Z,11.87
2018-08-14T07:32:17.301Z,11.20
2018-08-14T07:34:46.590Z,12.23
2018-08-14T07:37:16.923Z,11.40
2018-08-14T07:39:47.132Z,10.17
2018-08-14T07:42:17.071Z,9.07
2018-08-14T07:44:46.328Z,9.13
2018-08-14T07:47:15.977Z,8.37
2018-08-14T07:49:45.489Z,8.10
2018-08-14T07:52:15.295Z,8.30
2018-08-14T07:54:44.482Z,9.07
2018-08-14T07:57:14.004Z,7.87
2018-08-14T07:59:43.620Z,8.73
2018-08-14T08:02:13.427Z,8.23
2018-08-14T08:04:42.857Z,8.57
2018-08-14T08:07:12.259Z,9.07
2018-08-14T08:09:41.438Z,9.30
2018-08-14T08:12:10.769Z,9.30
2018-08-14T08:14:39.988Z,9.57
2018-08-14T08:17:10.886Z,9.53
2018-08-14T08:19:40.189Z,9.90
2018-08-14T08:22:09.916Z,10.80
2018-08-14T08:24:40.409Z,9.97
2018-08-14T08:27:10.259Z,5.57
2018-08-14T08:29:43.979Z,1.70
2018-08-14T08:32:13.632Z,1.77
2018-08-14T08:34:43.799Z,2.33
2018-08-14T08:37:13.056Z,1.53
2018-08-14T08:48:22.433Z,2.50
2018-08-14T08:50:55.600Z,2.13
2018-08-14T08:53:27.316Z,3.00
2018-08-14T08:55:57.513Z,3.40
2018-08-14T08:58:26.929Z,2.80
2018-08-14T09:00:56.298Z,2.50
2018-08-14T09:03:30.251Z,2.30
2018-08-14T09:06:06.038Z,2.80
2018-08-14T09:08:36.027Z,3.03
2018-08-14T09:11:05.772Z,3.57
2018-08-14T09:13:35.172Z,3.23
2018-08-14T09:16:04.729Z,2.57
2018-08-14T09:18:34.178Z,2.37
2018-08-14T09:21:03.839Z,2.60
2018-08-14T09:23:33.486Z,3.13
2018-08-14T09:26:03.271Z,2.93
2018-08-14T09:28:32.732Z,3.20
2018-08-14T09:31:09.366Z,3.10
2018-08-14T09:36:50.403Z,2.70
2018-08-14T09:39:19.611Z,2.50
2018-08-14T09:41:48.737Z,3.03
2018-08-14T09:44:17.979Z,3.30
2018-08-14T09:46:47.335Z,3.20
2018-08-14T09:49:16.932Z,2.90
2018-08-14T09:54:38.542Z,2.90
2018-08-14T09:57:08.570Z,3.10
2018-08-14T09:59:37.846Z,3.00
2018-08-14T10:02:12.546Z,3.00
2018-08-14T10:04:46.764Z,3.30
2018-08-14T10:07:19.061Z,3.73
2018-08-14T10:09:49.280Z,3.07
2018-08-14T10:12:18.536Z,3.73
2018-08-14T10:14:51.897Z,3.97
2018-08-14T10:17:21.088Z,3.57
2018-08-14T10:19:50.169Z,4.70
2018-08-14T10:22:20.213Z,5.57
2018-08-14T10:24:58.360Z,5.13
2018-08-14T10:27:27.680Z,2.80
2018-08-14T10:32:49.726Z,3.37
2018-08-14T10:35:20.506Z,3.97
2018-08-14T10:37:49.634Z,4.20
2018-08-14T10:40:20.106Z,3.47
2018-08-14T10:42:49.545Z,3.20
2018-08-14T10:45:19.447Z,3.20
2018-08-14T10:47:48.710Z,2.93
2018-08-14T10:50:22.054Z,3.13
2018-08-14T10:52:51.601Z,2.83
2018-08-14T10:55:21.352Z,2.33
2018-08-14T10:57:51.582Z,2.33
2018-08-14T11:00:30.584Z,2.70
2018-08-14T11:03:00.930Z,2.60
2018-08-14T11:05:30.208Z,2.20
2018-08-14T11:07:59.686Z,2.90
2018-08-14T11:10:30.788Z,2.47
2018-08-14T11:13:00.080Z,2.57
2018-08-14T11:15:29.590Z,2.13
2018-08-14T11:18:03.824Z,2.47
2018-08-14T11:20:33.365Z,2.40
2018-08-14T11:25:55.817Z,2.00
2018-08-14T11:28:25.281Z,2.03
2018-08-14T11:30:54.866Z,2.73
2018-08-14T11:33:24.222Z,3.40
2018-08-14T11:35:58.727Z,3.20
2018-08-14T11:38:27.904Z,2.57
2018-08-14T11:40:57.128Z,2.63
2018-08-14T11:43:26.571Z,2.07
2018-08-14T11:45:55.537Z,2.00
2018-08-14T11:48:24.657Z,2.20
2018-08-14T11:50:54.021Z,2.50
2018-08-14T11:53:23.249Z,1.70
2018-08-14T11:55:52.523Z,2.20
2018-08-14T11:58:22.288Z,1.80
2018-08-14T12:00:51.419Z,1.90
2018-08-14T12:03:20.590Z,1.73
2018-08-14T12:05:54.152Z,1.63
2018-08-14T12:08:23.649Z,1.40
2018-08-14T12:10:52.936Z,2.00
2018-08-14T12:13:21.973Z,2.00
2018-08-14T12:15:51.197Z,2.00
2018-08-14T12:18:20.404Z,2.33
2018-08-14T12:20:49.595Z,1.90
2018-08-14T12:23:18.856Z,2.00
2018-08-14T12:25:48.122Z,2.13
2018-08-14T12:28:17.479Z,1.97
2018-08-14T12:30:47.720Z,1.93
2018-08-14T12:33:38.099Z,1.80
2018-08-14T12:36:14.675Z,2.13
2018-08-14T12:38:57.921Z,1.90
2018-08-14T12:41:27.668Z,2.63
2018-08-14T12:50:30.972Z,2.73
2018-08-14T12:53:00.119Z,2.07
2018-08-14T13:12:43.817Z,1.53
2018-08-14T13:15:25.582Z,1.83
2018-08-14T13:18:04.966Z,1.57
2018-08-14T13:20:34.375Z,1.40
2018-08-14T13:23:03.680Z,1.80
2018-08-14T13:25:33.028Z,1.50
2018-08-14T13:28:27.550Z,1.60
2018-08-14T13:31:12.573Z,1.80
2018-08-14T13:33:42.787Z,1.70
2018-08-14T13:36:12.187Z,1.83
2018-08-14T13:38:41.591Z,1.97
2018-08-14T13:41:17.346Z,1.50
2018-08-14T13:43:47.715Z,1.80
2018-08-14T13:46:17.386Z,1.93
2018-08-14T13:48:46.930Z,1.70
2018-08-14T13:51:16.584Z,1.90
2018-08-14T13:53:45.910Z,2.00
2018-08-14T13:56:15.411Z,2.67
2018-08-14T14:19:18.998Z,1.90
2018-08-14T14:21:48.258Z,2.10
2018-08-14T14:24:18.948Z,2.53
2018-08-14T14:26:48.190Z,2.33
2018-08-14T14:29:17.919Z,2.00
2018-08-14T14:31:48.023Z,1.80
2018-08-14T14:34:39.278Z,1.83
2018-08-14T14:37:10.287Z,1.87
2018-08-14T14:39:44.432Z,1.93
2018-08-14T14:42:13.989Z,1.80
2018-08-14T14:44:54.000Z,2.50
2018-08-14T14:47:23.843Z,25.90
2018-08-14T14:49:53.309Z,4.07
2018-08-14T14:52:22.358Z,4.10
2018-08-14T14:54:51.548Z,1.97
2018-08-14T14:57:20.650Z,2.10
2018-08-14T14:59:49.723Z,1.90
2018-08-14T15:02:18.808Z,2.50
2018-08-14T15:04:47.876Z,2.10
2018-08-14T15:07:17.426Z,2.00
2018-08-14T15:09:46.441Z,1.97
2018-08-14T15:12:16.007Z,1.87
2018-08-14T15:14:45.720Z,2.20
2018-08-14T15:17:15.364Z,1.90
2018-08-14T15:20:00.213Z,1.70
2018-08-14T15:22:29.592Z,1.67
2018-08-14T15:24:58.636Z,1.70
2018-08-14T15:27:27.805Z,6.60
2018-08-14T15:30:01.970Z,6.50
2018-08-14T15:32:31.301Z,3.27
2018-08-14T15:35:00.308Z,4.23
2018-08-14T15:37:29.515Z,2.23
2018-08-14T15:39:58.657Z,1.50
2018-08-14T15:42:28.626Z,2.90
2018-08-14T15:44:57.765Z,1.97
2018-08-14T15:47:27.530Z,2.67
2018-08-14T15:49:56.520Z,1.60
2018-08-14T15:52:25.574Z,8.40
2018-08-14T15:54:54.556Z,6.87
2018-08-14T15:57:23.572Z,12.07
2018-08-14T15:59:52.624Z,12.40
2018-08-14T16:02:37.885Z,8.17
2018-08-14T16:05:19.006Z,3.23
2018-08-14T16:07:48.779Z,6.17
2018-08-14T16:10:21.218Z,3.47
2018-08-14T16:12:50.355Z,6.70
2018-08-14T16:18:18.185Z,1.70
2018-08-14T16:20:47.450Z,2.17
2018-08-14T16:23:17.311Z,2.47
2018-08-14T16:25:47.389Z,3.23
2018-08-14T16:28:16.938Z,4.83
2018-08-14T16:30:46.029Z,13.17
2018-08-14T16:33:15.690Z,27.07
2018-08-14T16:35:44.824Z,28.77
2018-08-14T16:38:27.808Z,29.57
2018-08-14T16:40:57.768Z,36.90
2018-08-14T16:43:26.829Z,18.80
2018-08-14T16:46:02.582Z,20.87
2018-08-14T16:48:31.962Z,16.20
2018-08-14T16:51:04.439Z,15.47
2018-08-14T16:53:37.854Z,24.00
2018-08-14T16:56:07.309Z,5.00
2018-08-14T16:58:42.833Z,7.80
2018-08-14T17:01:11.940Z,16.03
2018-08-14T17:03:41.182Z,3.57
2018-08-14T17:06:11.108Z,5.30
2018-08-14T17:08:40.474Z,4.90
2018-08-14T17:11:10.269Z,17.20
2018-08-14T17:13:40.382Z,7.60
2018-08-14T17:16:09.408Z,7.80
2018-08-14T17:18:38.667Z,7.90
2018-08-14T17:21:06.249Z,13.17
2018-08-14T17:23:35.371Z,10.13
2018-08-14T17:26:04.517Z,12.33
2018-08-14T17:28:33.901Z,15.73
2018-08-14T17:31:04.277Z,23.47
2018-08-14T17:33:33.385Z,19.03
2018-08-14T17:36:03.447Z,9.63
2018-08-14T17:38:33.022Z,4.67
2018-08-14T17:41:04.463Z,3.80
2018-08-14T17:43:33.931Z,3.60
2018-08-14T17:46:03.054Z,3.57
2018-08-14T17:48:35.755Z,4.10
2018-08-14T17:51:04.940Z,3.80
2018-08-14T17:53:54.818Z,4.00
2018-08-14T17:56:26.057Z,4.50
2018-08-14T17:59:01.080Z,10.93
2018-08-14T18:01:33.044Z,9.73
2018-08-14T18:04:02.945Z,6.43
2018-08-14T18:06:33.239Z,6.70
2018-08-14T18:09:10.890Z,5.40
2018-08-14T18:28:54.129Z,4.07
2018-08-14T18:31:23.150Z,4.10
2018-08-14T18:33:52.084Z,4.80
2018-08-14T18:36:21.106Z,4.70
2018-08-14T18:38:50.243Z,3.47
2018-08-14T18:41:19.227Z,3.17
2018-08-14T18:43:52.843Z,3.33
2018-08-14T18:46:21.852Z,3.20
2018-08-14T18:48:50.870Z,2.83
2018-08-14T18:51:20.021Z,3.33
2018-08-14T18:53:49.155Z,2.50
2018-08-14T18:56:18.476Z,2.40
2018-08-14T18:58:47.603Z,2.63
2018-08-14T19:01:18.100Z,2.40
2018-08-14T19:03:47.443Z,2.30
2018-08-14T19:06:18.033Z,2.50
2018-08-14T19:09:15.612Z,2.90
2018-08-14T19:11:56.161Z,2.50
2018-08-14T19:14:25.550Z,2.43
2018-08-14T19:16:55.462Z,2.40
2018-08-14T19:19:24.362Z,2.60
2018-08-14T19:21:53.902Z,2.70
2018-08-14T19:24:22.873Z,2.90
2018-08-14T19:26:51.924Z,2.70
2018-08-14T19:29:20.940Z,3.10
2018-08-14T19:31:49.845Z,3.20
2018-08-14T19:34:19.875Z,3.53
2018-08-14T19:36:48.950Z,3.60
2018-08-14T19:39:18.129Z,4.27
2018-08-14T19:41:47.129Z,3.63
2018-08-14T19:44:16.868Z,3.87
2018-08-14T19:46:47.477Z,3.53
2018-08-14T19:49:17.332Z,3.60
2018-08-14T19:51:46.943Z,3.90
2018-08-14T19:54:16.805Z,3.57
2018-08-14T19:56:46.092Z,3.87
2018-08-14T19:59:16.163Z,3.70
2018-08-14T20:01:48.441Z,3.97
2018-08-14T20:04:18.118Z,3.63
2018-08-14T20:06:47.437Z,3.90
2018-08-14T20:09:21.837Z,3.77
2018-08-14T20:11:50.822Z,4.23
2018-08-14T20:14:19.873Z,4.43
2018-08-14T20:16:48.983Z,3.80
2018-08-14T20:19:17.907Z,4.50
2018-08-14T20:21:47.087Z,4.07
2018-08-14T20:24:16.819Z,3.83
2018-08-14T20:26:45.879Z,4.50
2018-08-14T20:29:15.311Z,4.10
2018-08-14T20:31:44.460Z,4.00
2018-08-14T20:34:13.686Z,3.93
2018-08-14T20:36:42.780Z,4.17
2018-08-14T20:39:11.881Z,4.10
2018-08-14T20:41:41.786Z,4.40
2018-08-14T20:44:10.859Z,4.30
2018-08-14T20:46:40.103Z,4.50
2018-08-14T20:49:09.040Z,4.20
2018-08-14T20:54:30.118Z,4.40
2018-08-14T20:56:59.568Z,4.00
2018-08-14T20:59:28.627Z,3.47
2018-08-14T21:02:15.742Z,2.97
2018-08-14T21:04:54.516Z,3.43
2018-08-14T21:07:34.885Z,3.33
2018-08-14T21:10:15.705Z,4.00
2018-08-14T21:12:57.626Z,4.77
2018-08-14T21:15:48.672Z,3.87
2018-08-14T21:18:24.068Z,4.77
2018-08-14T21:20:53.067Z,4.30
2018-08-14T21:23:23.123Z,4.10
2018-08-14T21:25:52.155Z,4.63
2018-08-14T21:28:21.109Z,4.17
2018-08-14T21:30:56.424Z,4.80
2018-08-14T21:33:26.402Z,5.10
2018-08-14T21:35:55.497Z,5.70
2018-08-14T21:38:24.630Z,5.60
2018-08-14T21:41:04.182Z,5.63
2018-08-14T21:43:33.386Z,3.70
2018-08-14T21:46:08.856Z,3.90
2018-08-14T21:48:39.338Z,4.63
2018-08-14T21:51:17.036Z,4.40
2018-08-14T21:53:46.190Z,4.30
2018-08-14T21:56:16.445Z,3.80
2018-08-14T21:58:46.806Z,4.63
2018-08-14T22:01:16.997Z,3.57
2018-08-14T22:03:47.206Z,3.23
2018-08-14T22:06:19.212Z,2.90
2018-08-14T22:09:12.682Z,3.07
2018-08-14T22:11:41.800Z,3.13
2018-08-14T22:14:11.583Z,3.27
2018-08-14T22:16:41.603Z,3.50
2018-08-14T22:19:10.752Z,3.47
2018-08-14T22:21:43.985Z,3.80
2018-08-14T22:24:16.159Z,3.43
2018-08-14T22:26:45.269Z,3.63
2018-08-14T22:29:15.077Z,3.90
2018-08-14T22:32:14.528Z,3.40
2018-08-14T22:34:43.671Z,4.00
2018-08-14T22:37:45.796Z,4.30
2018-08-14T22:40:18.062Z,4.10
2018-08-14T22:42:47.367Z,3.77
2018-08-14T22:45:20.310Z,4.07
2018-08-14T22:48:04.247Z,3.80
2018-08-14T22:50:34.309Z,3.87
2018-08-14T22:53:23.836Z,3.97
2018-08-14T22:55:53.130Z,3.90
2018-08-14T22:58:23.386Z,3.80
2018-08-14T23:00:52.573Z,3.70
2018-08-14T23:03:46.353Z,4.00
2018-08-14T23:06:22.784Z,4.00
2018-08-14T23:08:51.991Z,3.33
2018-08-14T23:11:21.036Z,3.80
2018-08-14T23:13:50.103Z,4.17
2018-08-14T23:16:22.231Z,4.77
2018-08-14T23:18:51.709Z,4.10
2018-08-14T23:21:20.774Z,3.33
2018-08-14T23:23:50.958Z,3.83
2018-08-14T23:29:08.975Z,3.50
2018-08-14T23:32:06.677Z,4.00
2018-08-14T23:34:42.079Z,3.77
2018-08-14T23:37:28.803Z,3.90
2018-08-14T23:40:02.042Z,4.67
2018-08-14T23:43:02.363Z,5.60
2018-08-14T23:45:32.340Z,5.57
2018-08-14T23:48:01.473Z,6.10
2018-08-14T23:50:32.587Z,6.53
2018-08-14T23:53:01.813Z,6.37
2018-08-14T23:55:30.909Z,6.57
2018-08-14T23:58:01.719Z,4.30
